createdAt,value
2022-08-26T00:02:01.628Z,100881.09
2022-08-26T00:04:30.253Z,100884.97
2022-08-26T00:06:58.543Z,100877.06
2022-08-26T00:09:27.357Z,100888.50
2022-08-26T00:11:56.026Z,100884.22
2022-08-26T00:14:30.778Z,100882.28
2022-08-26T00:16:59.931Z,100883.22
2022-08-26T00:19:28.553Z,100883.69
2022-08-26T00:21:56.989Z,100888.91
2022-08-26T00:24:25.671Z,100892.19
2022-08-26T00:27:19.072Z,100891.41
2022-08-26T00:29:54.742Z,100904.56
2022-08-26T00:32:25.316Z,100913.66
2022-08-26T00:34:54.358Z,100910.94
2022-08-26T00:37:22.695Z,100905.53
2022-08-26T00:39:53.472Z,100908.19
2022-08-26T00:42:22.203Z,100915.09
2022-08-26T00:44:52.684Z,100920.94
2022-08-26T00:47:25.693Z,100921.41
2022-08-26T00:50:01.927Z,100926.00
2022-08-26T00:52:31.090Z,100919.13
2022-08-26T00:55:05.178Z,100913.75
2022-08-26T00:57:35.892Z,100926.72
2022-08-26T01:00:11.055Z,100927.81
2022-08-26T01:02:40.542Z,100930.47
2022-08-26T01:05:15.757Z,100927.47
2022-08-26T01:07:45.164Z,100923.22
2022-08-26T01:10:18.021Z,100928.16
2022-08-26T01:12:49.346Z,100934.84
2022-08-26T01:15:23.424Z,100935.78
2022-08-26T01:17:52.226Z,100938.16
2022-08-26T01:20:29.068Z,100936.22
2022-08-26T01:23:01.702Z,100931.91
2022-08-26T01:25:34.709Z,100940.81
2022-08-26T01:28:10.482Z,100935.59
2022-08-26T01:30:40.954Z,100938.88
2022-08-26T01:33:14.211Z,100938.88
2022-08-26T01:35:46.499Z,100945.38
2022-08-26T01:38:19.360Z,100942.56
2022-08-26T01:40:48.520Z,100942.19
2022-08-26T01:43:23.565Z,100945.84
2022-08-26T01:45:54.761Z,100944.56
2022-08-26T01:48:28.384Z,100954.25
2022-08-26T01:50:57.527Z,100948.06
2022-08-26T01:53:28.369Z,100948.91
2022-08-26T01:56:00.530Z,100957.75
2022-08-26T01:58:34.279Z,100962.91
2022-08-26T02:01:03.836Z,100963.38
2022-08-26T02:03:33.920Z,100963.81
2022-08-26T02:06:09.365Z,100970.50
2022-08-26T02:08:43.379Z,100969.03
2022-08-26T02:11:12.900Z,100967.53
2022-08-26T02:13:46.261Z,100971.63
2022-08-26T02:16:17.674Z,100973.78
2022-08-26T02:18:47.364Z,100989.31
2022-08-26T02:21:16.028Z,100997.28
2022-08-26T02:23:46.508Z,101000.06
2022-08-26T02:26:18.136Z,100990.44
2022-08-26T02:28:52.761Z,100985.06
2022-08-26T02:31:21.332Z,100990.44
2022-08-26T02:33:50.855Z,100990.66
2022-08-26T02:36:21.946Z,100999.25
2022-08-26T02:38:52.192Z,100993.00
2022-08-26T02:41:20.495Z,100993.91
2022-08-26T02:43:51.446Z,100991.34
2022-08-26T02:46:27.887Z,100987.88
2022-08-26T02:48:58.895Z,100991.16
2022-08-26T02:51:26.971Z,100993.28
2022-08-26T02:53:56.973Z,100986.84
2022-08-26T02:56:25.651Z,100989.47
2022-08-26T02:59:55.305Z,100993.09
2022-08-26T03:02:24.139Z,100989.03
2022-08-26T03:04:57.918Z,100995.72
2022-08-26T03:07:29.279Z,100990.53
2022-08-26T03:10:00.821Z,100990.34
2022-08-26T03:12:29.982Z,100997.88
2022-08-26T03:14:58.187Z,100991.44
2022-08-26T03:17:26.873Z,100988.00
2022-08-26T03:19:57.199Z,100991.03
2022-08-26T03:22:27.007Z,100994.91
2022-08-26T03:24:55.910Z,101001.56
2022-08-26T03:27:25.917Z,100993.19
2022-08-26T03:30:12.032Z,100990.81
2022-08-26T03:32:41.558Z,100986.25
2022-08-26T03:35:10.812Z,100991.84
2022-08-26T03:37:39.720Z,100991.00
2022-08-26T03:40:10.552Z,100991.66
2022-08-26T03:42:41.410Z,100984.34
2022-08-26T03:45:14.403Z,100994.88
2022-08-26T03:48:09.716Z,100996.16
2022-08-26T03:50:38.019Z,100994.44
2022-08-26T03:53:07.455Z,100994.44
2022-08-26T03:55:43.237Z,100996.16
2022-08-26T03:58:12.622Z,100996.16
2022-08-26T04:00:40.748Z,101008.41
2022-08-26T04:03:09.956Z,101004.75
2022-08-26T04:05:38.974Z,101003.03
2022-08-26T04:08:07.432Z,101003.91
2022-08-26T04:10:35.396Z,101000.25
2022-08-26T04:13:03.343Z,100997.66
2022-08-26T04:15:33.357Z,101001.09
2022-08-26T04:18:02.764Z,101004.13
2022-08-26T04:20:31.957Z,100997.66
2022-08-26T04:23:00.136Z,101004.13
2022-08-26T04:25:28.196Z,100998.53
2022-08-26T04:27:58.468Z,101007.97
2022-08-26T04:30:26.344Z,101006.91
2022-08-26T04:32:55.809Z,101010.16
2022-08-26T04:35:25.985Z,101011.88
2022-08-26T04:37:55.300Z,101005.81
2022-08-26T04:40:23.597Z,101018.53
2022-08-26T04:42:51.622Z,101011.47
2022-08-26T04:45:22.837Z,101011.84
2022-08-26T04:47:56.362Z,101019.59
2022-08-26T04:50:26.518Z,101018.06
2022-08-26T04:52:55.337Z,101010.13
2022-08-26T04:55:25.192Z,101018.69
2022-08-26T04:58:08.724Z,101018.50
2022-08-26T05:00:38.345Z,101030.38
2022-08-26T05:03:10.207Z,101026.00
2022-08-26T05:06:00.486Z,101032.88
2022-08-26T05:08:28.348Z,101021.44
2022-08-26T05:10:56.662Z,101020.16
2022-08-26T05:13:26.744Z,101028.97
2022-08-26T05:15:58.147Z,101025.97
2022-08-26T05:18:31.226Z,101029.16
2022-08-26T05:20:59.091Z,101031.97
2022-08-26T05:23:26.906Z,101033.47
2022-08-26T05:25:59.261Z,101025.72
2022-08-26T05:28:30.746Z,101031.94
2022-08-26T05:30:58.702Z,101026.34
2022-08-26T05:33:26.664Z,101036.44
2022-08-26T05:35:56.027Z,101036.91
2022-08-26T05:38:24.814Z,101028.72
2022-08-26T05:40:54.621Z,101031.31
2022-08-26T05:43:48.215Z,101033.47
2022-08-26T05:46:16.948Z,101031.31
2022-08-26T05:48:45.628Z,101030.25
2022-08-26T05:51:16.848Z,101034.28
2022-08-26T05:53:54.610Z,101038.16
2022-08-26T05:56:24.824Z,101027.84
2022-08-26T05:58:53.136Z,101040.75
2022-08-26T06:01:24.240Z,101037.53
2022-08-26T06:03:54.209Z,101040.53
2022-08-26T06:06:27.288Z,101043.13
2022-08-26T06:08:59.431Z,101045.47
2022-08-26T06:11:30.576Z,101045.47
2022-08-26T06:14:03.745Z,101045.69
2022-08-26T06:17:21.816Z,101051.97
2022-08-26T06:19:51.392Z,101053.44
2022-08-26T06:22:37.929Z,101049.38
2022-08-26T06:25:35.669Z,101054.53
2022-08-26T06:28:15.275Z,101058.19
2022-08-26T06:30:43.335Z,101049.38
2022-08-26T06:33:11.146Z,101056.91
2022-08-26T06:35:40.301Z,101060.56
2022-08-26T06:38:11.084Z,101061.66
2022-08-26T06:40:42.357Z,101068.09
2022-08-26T06:43:11.254Z,101066.19
2022-08-26T06:45:39.533Z,101063.16
2022-08-26T06:48:09.094Z,101062.06
2022-08-26T06:50:37.841Z,101060.34
2022-08-26T06:53:06.001Z,101059.53
2022-08-26T06:55:41.558Z,101067.47
2022-08-26T06:58:10.626Z,101065.34
2022-08-26T07:01:11.392Z,101069.41
2022-08-26T07:03:39.957Z,101068.56
2022-08-26T07:06:08.794Z,101075.66
2022-08-26T07:08:36.775Z,101066.19
2022-08-26T07:11:08.107Z,101066.81
2022-08-26T07:13:38.099Z,101075.88
2022-08-26T07:16:06.791Z,101077.59
2022-08-26T07:18:36.089Z,101074.81
2022-08-26T07:21:06.762Z,101081.25
2022-08-26T07:23:35.880Z,101083.41
2022-08-26T07:26:08.160Z,101085.13
2022-08-26T07:28:35.922Z,101085.84
2022-08-26T07:31:07.450Z,101081.28
2022-08-26T07:33:39.036Z,101089.41
2022-08-26T07:36:08.804Z,101090.28
2022-08-26T07:38:38.741Z,101091.34
2022-08-26T07:41:09.610Z,101095.00
2022-08-26T07:43:38.104Z,101096.34
2022-08-26T07:46:07.759Z,101103.84
2022-08-26T07:48:36.360Z,101100.19
2022-08-26T07:51:05.688Z,101098.47
2022-08-26T07:53:36.090Z,101101.91
2022-08-26T07:56:04.914Z,101106.88
2022-08-26T07:58:34.378Z,101116.13
2022-08-26T08:01:02.406Z,101114.59
2022-08-26T08:03:32.718Z,101108.16
2022-08-26T08:06:00.811Z,101110.94
2022-08-26T08:08:29.069Z,101109.22
2022-08-26T08:11:03.636Z,101113.53
2022-08-26T08:13:35.640Z,101112.03
2022-08-26T08:16:04.039Z,101108.59
2022-08-26T08:18:32.227Z,101108.59
2022-08-26T08:21:20.916Z,101110.53
2022-08-26T08:23:50.220Z,101113.56
2022-08-26T08:26:18.546Z,101117.22
2022-08-26T08:28:48.416Z,101127.06
2022-08-26T08:31:51.981Z,101122.34
2022-08-26T08:34:10.358Z,101126.66
2022-08-26T08:36:38.374Z,101121.06
2022-08-26T08:39:07.115Z,101126.66
2022-08-26T08:42:16.077Z,101123.22
2022-08-26T08:44:52.231Z,101127.75
2022-08-26T08:47:26.906Z,101126.88
2022-08-26T08:49:57.169Z,101124.28
2022-08-26T08:52:30.940Z,101121.28
2022-08-26T08:54:59.347Z,101120.00
2022-08-26T08:57:42.030Z,101123.22
2022-08-26T09:00:18.291Z,101125.16
2022-08-26T09:02:53.585Z,101126.00
2022-08-26T09:05:24.879Z,101127.94
2022-08-26T09:07:58.451Z,101127.28
2022-08-26T09:10:36.160Z,101125.81
2022-08-26T09:13:07.339Z,101126.88
2022-08-26T09:15:51.741Z,101128.59
2022-08-26T09:18:31.141Z,101130.53
2022-08-26T09:21:03.326Z,101127.75
2022-08-26T09:23:35.794Z,101129.47
2022-08-26T09:26:14.866Z,101129.69
2022-08-26T09:28:48.151Z,101129.47
2022-08-26T09:31:27.505Z,101140.44
2022-08-26T09:34:08.095Z,101144.31
2022-08-26T09:36:41.178Z,101131.41
2022-08-26T09:39:27.100Z,101147.31
2022-08-26T09:42:09.468Z,101138.72
2022-08-26T09:44:55.044Z,101138.28
2022-08-26T09:47:30.156Z,101135.25
2022-08-26T09:50:01.182Z,101130.75
2022-08-26T09:52:30.538Z,101133.13
2022-08-26T09:55:11.478Z,101143.66
2022-08-26T09:57:48.476Z,101135.25
2022-08-26T10:00:32.573Z,101136.34
2022-08-26T10:03:04.576Z,101132.69
2022-08-26T10:05:39.991Z,101129.88
2022-08-26T10:08:23.916Z,101129.88
2022-08-26T10:10:53.491Z,101125.59
2022-08-26T10:13:26.965Z,101128.81
2022-08-26T10:16:05.681Z,101134.19
2022-08-26T10:19:00.142Z,101127.28
2022-08-26T10:21:35.512Z,101127.75
2022-08-26T10:24:04.724Z,101124.72
2022-08-26T10:26:42.663Z,101127.94
2022-08-26T10:30:11.869Z,101119.78
2022-08-26T10:32:43.012Z,101122.59
2022-08-26T10:35:16.139Z,101124.06
2022-08-26T10:37:47.882Z,101124.28
2022-08-26T10:40:24.579Z,101119.09
2022-08-26T10:42:57.897Z,101116.75
2022-08-26T10:45:30.297Z,101113.50
2022-08-26T10:48:08.099Z,101115.66
2022-08-26T10:50:41.417Z,101129.22
2022-08-26T10:53:17.160Z,101125.78
2022-08-26T10:55:51.775Z,101118.91
2022-08-26T10:58:33.071Z,101119.28
2022-08-26T11:01:27.081Z,101120.16
2022-08-26T11:04:02.790Z,101120.59
2022-08-26T11:06:33.200Z,101121.84
2022-08-26T11:09:08.582Z,101122.28
2022-08-26T11:11:46.839Z,101118.19
2022-08-26T11:14:40.739Z,101118.19
2022-08-26T11:17:56.477Z,101121.41
2022-08-26T11:20:49.393Z,101117.94
2022-08-26T11:23:50.784Z,101108.69
2022-08-26T11:26:36.214Z,101101.16
2022-08-26T11:29:12.061Z,101111.00
2022-08-26T11:31:57.554Z,101103.66
2022-08-26T11:34:55.195Z,101105.16
2022-08-26T11:37:37.516Z,101105.13
2022-08-26T11:40:14.061Z,101104.44
2022-08-26T11:42:45.949Z,101104.66
2022-08-26T11:45:20.438Z,101101.44
2022-08-26T11:47:49.335Z,101104.00
2022-08-26T11:50:21.469Z,101100.09
2022-08-26T11:52:55.075Z,101097.06
2022-08-26T11:55:25.196Z,101092.72
2022-08-26T11:57:57.237Z,101095.06
2022-08-26T12:00:28.107Z,101099.59
2022-08-26T12:03:06.490Z,101102.78
2022-08-26T12:05:39.450Z,101092.88
2022-08-26T12:08:10.554Z,101101.06
2022-08-26T12:10:40.462Z,101100.84
2022-08-26T12:13:10.213Z,101102.31
2022-08-26T12:15:38.501Z,101105.97
2022-08-26T12:18:28.763Z,101104.44
2022-08-26T12:21:00.378Z,101102.50
2022-08-26T12:23:41.284Z,101097.50
2022-08-26T12:26:19.864Z,101101.38
2022-08-26T12:28:51.323Z,101098.38
2022-08-26T12:31:27.203Z,101099.22
2022-08-26T12:33:57.392Z,101100.09
2022-08-26T12:36:31.626Z,101102.03
2022-08-26T12:39:08.611Z,101109.78
2022-08-26T12:41:45.127Z,101101.09
2022-08-26T12:44:32.384Z,101110.84
2022-08-26T12:47:05.108Z,101104.78
2022-08-26T12:49:33.291Z,101108.69
2022-08-26T12:52:01.434Z,101106.72
2022-08-26T12:54:51.534Z,101102.81
2022-08-26T12:57:30.320Z,101095.28
2022-08-26T13:00:28.397Z,101102.81
2022-08-26T13:02:56.928Z,101091.88
2022-08-26T13:05:27.740Z,101096.59
2022-08-26T13:08:13.343Z,101094.66
2022-08-26T13:10:43.267Z,101093.56
2022-08-26T13:13:12.942Z,101085.78
2022-08-26T13:15:41.417Z,101089.44
2022-08-26T13:18:09.375Z,101086.41
2022-08-26T13:20:44.106Z,101088.53
2022-08-26T13:23:41.913Z,101082.75
2022-08-26T13:26:10.605Z,101082.53
2022-08-26T13:28:40.207Z,101087.44
2022-08-26T13:31:08.825Z,101088.53
2022-08-26T13:33:40.088Z,101089.16
2022-08-26T13:36:09.904Z,101083.78
2022-08-26T13:38:43.248Z,101090.88
2022-08-26T13:41:17.225Z,101085.09
2022-08-26T13:43:59.650Z,101076.69
2022-08-26T13:46:29.186Z,101076.28
2022-08-26T13:49:13.330Z,101081.03
2022-08-26T13:51:42.983Z,101075.91
2022-08-26T13:54:11.076Z,101079.13
2022-08-26T13:56:39.434Z,101083.22
2022-08-26T13:59:09.175Z,101073.94
2022-08-26T14:01:40.103Z,101083.91
2022-08-26T14:04:08.650Z,101079.63
2022-08-26T14:06:37.531Z,101083.97
2022-08-26T14:09:05.980Z,101080.53
2022-08-26T14:11:50.911Z,101085.50
2022-08-26T14:14:23.515Z,101074.75
2022-08-26T14:16:59.681Z,101088.34
2022-08-26T14:19:29.981Z,101094.38
2022-08-26T14:22:00.787Z,101088.41
2022-08-26T14:24:29.526Z,101082.59
2022-08-26T14:26:57.729Z,101081.97
2022-08-26T14:29:27.465Z,101086.72
2022-08-26T14:31:58.664Z,101085.22
2022-08-26T14:34:29.956Z,101088.06
2022-08-26T14:36:57.983Z,101087.66
2022-08-26T14:39:35.874Z,101094.31
2022-08-26T14:42:03.856Z,101084.44
2022-08-26T14:44:34.341Z,101076.28
2022-08-26T14:47:06.069Z,101081.19
2022-08-26T14:49:34.214Z,101075.63
2022-08-26T14:52:02.642Z,101073.91
2022-08-26T14:54:30.875Z,101076.72
2022-08-26T14:57:04.895Z,101076.50
2022-08-26T14:59:37.052Z,101074.34
2022-08-26T15:02:05.213Z,101069.53
2022-08-26T15:04:36.008Z,101071.13
2022-08-26T15:07:04.826Z,101071.94
2022-08-26T15:09:44.182Z,101068.50
2022-08-26T15:12:11.902Z,101069.69
2022-08-26T15:14:41.226Z,101076.00
2022-08-26T15:17:09.331Z,101074.47
2022-08-26T15:19:55.603Z,101057.00
2022-08-26T15:22:24.231Z,101065.19
2022-08-26T15:24:57.838Z,101061.69
2022-08-26T15:27:25.913Z,101071.59
2022-08-26T15:29:55.465Z,101063.34
2022-08-26T15:32:23.578Z,101073.69
2022-08-26T15:34:53.015Z,101066.16
2022-08-26T15:37:21.150Z,101064.00
2022-08-26T15:39:49.536Z,101062.06
2022-08-26T15:42:17.579Z,101062.06
2022-08-26T15:44:46.517Z,101065.72
2022-08-26T15:47:16.265Z,101066.56
2022-08-26T15:49:44.179Z,101067.00
2022-08-26T15:52:12.219Z,101062.50
2022-08-26T15:54:41.007Z,101062.72
2022-08-26T15:57:11.504Z,101055.41
2022-08-26T15:59:40.774Z,101052.44
2022-08-26T16:02:09.184Z,101048.75
2022-08-26T16:04:38.637Z,101048.75
2022-08-26T16:07:06.834Z,101046.66
2022-08-26T16:09:34.910Z,101046.88
2022-08-26T16:12:03.142Z,101053.78
2022-08-26T16:14:32.361Z,101054.00
2022-08-26T16:17:00.538Z,101057.25
2022-08-26T16:19:28.544Z,101050.16
2022-08-26T16:21:57.920Z,101057.50
2022-08-26T16:24:30.192Z,101061.84
2022-08-26T16:26:58.688Z,101060.34
2022-08-26T16:29:26.723Z,101064.41
2022-08-26T16:31:55.147Z,101055.13
2022-08-26T16:34:23.537Z,101062.91
2022-08-26T16:36:52.376Z,101062.28
2022-08-26T16:39:21.813Z,101061.44
2022-08-26T16:41:50.454Z,101067.47
2022-08-26T16:44:19.238Z,101065.97
2022-08-26T16:46:49.578Z,101071.56
2022-08-26T16:49:17.691Z,101076.75
2022-08-26T16:51:45.756Z,101078.06
2022-08-26T16:54:13.914Z,101077.41
2022-08-26T16:56:43.299Z,101090.53
2022-08-26T16:59:12.234Z,101092.94
2022-08-26T17:01:40.601Z,101090.56
2022-08-26T17:04:08.919Z,101096.63
2022-08-26T17:06:37.014Z,101097.06
2022-08-26T17:09:05.503Z,101095.81
2022-08-26T17:11:33.986Z,101090.66
2022-08-26T17:14:03.738Z,101099.03
2022-08-26T17:16:31.768Z,101108.06
2022-08-26T17:19:00.922Z,101103.59
2022-08-26T17:21:29.726Z,101099.28
2022-08-26T17:23:57.694Z,101107.25
2022-08-26T17:26:25.810Z,101113.91
2022-08-26T17:28:54.102Z,101116.09
2022-08-26T17:31:24.497Z,101111.56
2022-08-26T17:33:53.755Z,101111.31
2022-08-26T17:36:28.091Z,101112.19
2022-08-26T17:38:57.767Z,101120.16
2022-08-26T17:41:26.672Z,101116.72
2022-08-26T17:43:54.822Z,101107.91
2022-08-26T17:46:25.460Z,101113.50
2022-08-26T17:48:53.925Z,101105.78
2022-08-26T17:51:22.948Z,101107.91
2022-08-26T17:53:51.890Z,101116.53
2022-08-26T17:56:24.002Z,101118.69
2022-08-26T17:58:51.973Z,101115.69
2022-08-26T18:01:21.096Z,101121.72
2022-08-26T18:03:51.062Z,101119.53
2022-08-26T18:06:21.051Z,101120.88
2022-08-26T18:08:49.301Z,101113.75
2022-08-26T18:11:19.639Z,101115.69
2022-08-26T18:13:48.208Z,101113.31
2022-08-26T18:16:18.082Z,101112.69
2022-08-26T18:18:47.631Z,101115.91
2022-08-26T18:21:19.456Z,101121.50
2022-08-26T18:23:48.598Z,101118.72
2022-08-26T18:26:18.442Z,101124.31
2022-08-26T18:28:46.628Z,101125.81
2022-08-26T18:31:15.333Z,101124.31
2022-08-26T18:33:44.148Z,101130.13
2022-08-26T18:36:19.558Z,101123.66
2022-08-26T18:38:50.461Z,101132.66
2022-08-26T18:41:20.699Z,101121.91
2022-08-26T18:43:50.398Z,101128.78
2022-08-26T18:46:21.025Z,101128.78
2022-08-26T18:48:50.846Z,101133.97
2022-08-26T18:51:22.867Z,101132.88
2022-08-26T18:54:01.927Z,101134.38
2022-08-26T18:56:30.866Z,101129.44
2022-08-26T18:58:59.803Z,101130.53
2022-08-26T19:01:29.682Z,101134.38
2022-08-26T19:03:58.619Z,101121.91
2022-08-26T19:06:29.402Z,101131.13
2022-08-26T19:08:57.946Z,101132.66
2022-08-26T19:11:31.556Z,101134.78
2022-08-26T19:14:01.783Z,101143.38
2022-08-26T19:16:31.238Z,101148.97
2022-08-26T19:19:00.996Z,101147.44
2022-08-26T19:21:31.184Z,101152.19
2022-08-26T19:24:00.951Z,101154.34
2022-08-26T19:26:29.955Z,101151.75
2022-08-26T19:28:58.897Z,101148.97
2022-08-26T19:31:27.290Z,101148.09
2022-08-26T19:33:56.700Z,101153.91
2022-08-26T19:36:26.168Z,101145.50
2022-08-26T19:38:56.728Z,101144.66
2022-08-26T19:41:36.557Z,101145.72
2022-08-26T19:44:08.392Z,101144.22
2022-08-26T19:49:10.399Z,101142.72
2022-08-26T19:51:38.665Z,101147.63
2022-08-26T19:54:08.465Z,101157.75
2022-08-26T19:56:36.671Z,101148.94
2022-08-26T19:59:04.606Z,101153.66
2022-08-26T20:01:32.797Z,101153.88
2022-08-26T20:04:01.262Z,101154.94
2022-08-26T20:06:29.249Z,101148.69
2022-08-26T20:08:57.563Z,101151.50
2022-08-26T20:11:27.223Z,101145.91
2022-08-26T20:13:55.356Z,101151.06
2022-08-26T20:16:23.409Z,101149.31
2022-08-26T20:19:09.146Z,101145.88
2022-08-26T20:21:39.902Z,101149.72
2022-08-26T20:24:11.595Z,101156.38
2022-08-26T20:26:44.030Z,101157.63
2022-08-26T20:29:16.833Z,101157.00
2022-08-26T20:31:45.837Z,101160.41
2022-08-26T20:34:16.302Z,101167.94
2022-08-26T20:36:45.562Z,101169.44
2022-08-26T20:39:16.333Z,101177.81
2022-08-26T20:41:46.320Z,101170.03
2022-08-26T20:44:14.884Z,101169.81
2022-08-26T20:46:43.321Z,101173.00
2022-08-26T20:49:11.797Z,101180.28
2022-08-26T20:51:43.043Z,101172.31
2022-08-26T20:54:13.779Z,101174.47
2022-08-26T20:56:55.227Z,101177.88
2022-08-26T20:59:23.571Z,101178.50
2022-08-26T21:01:54.574Z,101176.97
2022-08-26T21:04:26.449Z,101178.25
2022-08-26T21:06:55.734Z,101178.22
2022-08-26T21:09:25.970Z,101176.28
2022-08-26T21:11:56.706Z,101171.75
2022-08-26T21:14:25.707Z,101180.75
2022-08-26T21:16:54.779Z,101171.50
2022-08-26T21:19:25.549Z,101178.34
2022-08-26T21:22:54.963Z,101180.47
2022-08-26T21:25:23.352Z,101175.72
2022-08-26T21:27:53.099Z,101182.81
2022-08-26T21:30:21.739Z,101179.56
2022-08-26T21:32:50.578Z,101173.38
2022-08-26T21:35:19.133Z,101181.94
2022-08-26T21:37:47.609Z,101174.63
2022-08-26T21:40:15.990Z,101174.81
2022-08-26T21:42:44.335Z,101168.56
2022-08-26T21:45:14.322Z,101173.09
2022-08-26T21:47:42.664Z,101182.72
2022-08-26T21:50:15.210Z,101182.09
2022-08-26T21:52:45.074Z,101187.00
2022-08-26T21:55:14.233Z,101191.22
2022-08-26T21:57:42.535Z,101192.69
2022-08-26T22:00:37.986Z,101206.34
2022-08-26T22:03:06.431Z,101196.19
2022-08-26T22:05:34.660Z,101199.75
2022-08-26T22:08:03.324Z,101206.16
2022-08-26T22:10:31.578Z,101196.88
2022-08-26T22:12:59.959Z,101199.56
2022-08-26T22:15:28.302Z,101191.16
2022-08-26T22:17:58.022Z,101197.53
2022-08-26T22:20:27.610Z,101204.94
2022-08-26T22:22:55.759Z,101203.78
2022-08-26T22:25:26.087Z,101205.94
2022-08-26T22:27:55.377Z,101201.34
2022-08-26T22:30:25.553Z,101204.34
2022-08-26T22:32:55.995Z,101208.78
2022-08-26T22:35:28.474Z,101210.00
2022-08-26T22:37:59.193Z,101211.63
2022-08-26T22:40:27.514Z,101213.75
2022-08-26T22:43:00.347Z,101208.38
2022-08-26T22:45:29.327Z,101211.53
2022-08-26T22:47:57.675Z,101214.31
2022-08-26T22:50:34.983Z,101217.78
2022-08-26T22:53:03.921Z,101217.09
2022-08-26T22:55:32.558Z,101217.09
2022-08-26T22:58:01.380Z,101209.81
2022-08-26T23:00:32.012Z,101207.25
2022-08-26T23:03:01.368Z,101216.66
2022-08-26T23:05:51.938Z,101214.91
2022-08-26T23:08:27.004Z,101216.56
2022-08-26T23:10:55.388Z,101215.72
2022-08-26T23:13:23.745Z,101210.34
2022-08-26T23:16:01.703Z,101217.63
2022-08-26T23:18:30.196Z,101213.91
2022-08-26T23:20:59.811Z,101218.38
2022-08-26T23:23:28.431Z,101225.41
2022-08-26T23:25:57.377Z,101215.31
2022-08-26T23:28:26.595Z,101218.09
2022-08-26T23:30:55.743Z,101218.28
2022-08-26T23:33:24.281Z,101215.50
2022-08-26T23:35:51.555Z,101220.22
2022-08-26T23:38:24.591Z,101210.63
2022-08-26T23:40:53.184Z,101210.13
2022-08-26T23:43:21.446Z,101209.94
2022-08-26T23:45:49.964Z,101209.94
2022-08-26T23:48:18.487Z,101206.31
2022-08-26T23:51:05.731Z,101215.50
2022-08-26T23:53:35.980Z,101214.84
2022-08-26T23:56:04.842Z,101209.28
2022-08-26T23:58:33.806Z,101204.78
